sensor_id;sensor_type;location;lat;lon;timestamp;P1;durP1;ratioP1;P2;durP2;ratioP2
1128;SDS011;553;51.038;7.216;2022-09-28T00:01:09;11.93;;;8.60;;
1128;SDS011;553;51.038;7.216;2022-09-28T00:03:45;9.93;;;8.47;;
1128;SDS011;553;51.038;7.216;2022-09-28T00:06:14;12.43;;;8.20;;
1128;SDS011;553;51.038;7.216;2022-09-28T00:08:46;13.03;;;9.00;;
1128;SDS011;553;51.038;7.216;2022-09-28T00:11:15;16.60;;;10.10;;
1128;SDS011;553;51.038;7.216;2022-09-28T00:13:43;13.63;;;9.70;;
1128;SDS011;553;51.038;7.216;2022-09-28T00:16:15;17.27;;;11.07;;
1128;SDS011;553;51.038;7.216;2022-09-28T00:18:44;17.17;;;11.37;;
1128;SDS011;553;51.038;7.216;2022-09-28T00:21:12;16.00;;;10.83;;
1128;SDS011;553;51.038;7.216;2022-09-28T00:23:41;15.00;;;10.50;;
1128;SDS011;553;51.038;7.216;2022-09-28T00:26:27;16.40;;;11.60;;
1128;SDS011;553;51.038;7.216;2022-09-28T00:28:56;18.70;;;12.10;;
1128;SDS011;553;51.038;7.216;2022-09-28T00:31:28;20.17;;;13.53;;
1128;SDS011;553;51.038;7.216;2022-09-28T00:33:58;20.50;;;15.00;;
1128;SDS011;553;51.038;7.216;2022-09-28T00:36:27;20.43;;;13.60;;
1128;SDS011;553;51.038;7.216;2022-09-28T00:38:55;19.17;;;13.80;;
1128;SDS011;553;51.038;7.216;2022-09-28T00:41:24;21.10;;;13.00;;
1128;SDS011;553;51.038;7.216;2022-09-28T00:43:52;17.47;;;11.87;;
1128;SDS011;553;51.038;7.216;2022-09-28T00:46:40;13.70;;;9.90;;
1128;SDS011;553;51.038;7.216;2022-09-28T00:49:10;14.17;;;9.90;;
1128;SDS011;553;51.038;7.216;2022-09-28T00:51:40;10.70;;;7.40;;
1128;SDS011;553;51.038;7.216;2022-09-28T00:54:10;12.10;;;8.23;;
1128;SDS011;553;51.038;7.216;2022-09-28T00:56:39;12.33;;;7.50;;
1128;SDS011;553;51.038;7.216;2022-09-28T00:59:10;11.80;;;8.10;;
1128;SDS011;553;51.038;7.216;2022-09-28T01:01:37;11.70;;;7.40;;
1128;SDS011;553;51.038;7.216;2022-09-28T01:04:04;10.87;;;7.10;;
1128;SDS011;553;51.038;7.216;2022-09-28T01:06:33;11.30;;;7.50;;
1128;SDS011;553;51.038;7.216;2022-09-28T01:09:02;9.20;;;6.77;;
1128;SDS011;553;51.038;7.216;2022-09-28T01:11:32;10.43;;;6.70;;
1128;SDS011;553;51.038;7.216;2022-09-28T01:14:02;10.40;;;7.30;;
1128;SDS011;553;51.038;7.216;2022-09-28T01:19:18;9.43;;;6.67;;
1128;SDS011;553;51.038;7.216;2022-09-28T01:22:11;9.90;;;7.13;;
1128;SDS011;553;51.038;7.216;2022-09-28T01:25:40;11.27;;;7.93;;
1128;SDS011;553;51.038;7.216;2022-09-28T01:28:14;10.03;;;7.23;;
1128;SDS011;553;51.038;7.216;2022-09-28T01:30:55;10.77;;;6.97;;
1128;SDS011;553;51.038;7.216;2022-09-28T01:33:25;9.77;;;7.30;;
1128;SDS011;553;51.038;7.216;2022-09-28T01:35:58;10.23;;;7.20;;
1128;SDS011;553;51.038;7.216;2022-09-28T01:38:42;11.67;;;8.07;;
1128;SDS011;553;51.038;7.216;2022-09-28T01:41:13;10.90;;;8.50;;
1128;SDS011;553;51.038;7.216;2022-09-28T01:43:48;11.90;;;7.90;;
1128;SDS011;553;51.038;7.216;2022-09-28T01:46:26;11.50;;;7.37;;
1128;SDS011;553;51.038;7.216;2022-09-28T01:49:05;12.47;;;8.73;;
1128;SDS011;553;51.038;7.216;2022-09-28T01:51:47;13.43;;;8.77;;
1128;SDS011;553;51.038;7.216;2022-09-28T01:54:27;18.57;;;9.20;;
1128;SDS011;553;51.038;7.216;2022-09-28T01:57:10;13.03;;;9.40;;
1128;SDS011;553;51.038;7.216;2022-09-28T01:59:57;15.57;;;9.23;;
1128;SDS011;553;51.038;7.216;2022-09-28T02:02:45;13.80;;;9.27;;
1128;SDS011;553;51.038;7.216;2022-09-28T02:05:21;13.60;;;9.80;;
1128;SDS011;553;51.038;7.216;2022-09-28T02:08:08;13.20;;;10.27;;
1128;SDS011;553;51.038;7.216;2022-09-28T02:10:47;13.83;;;10.03;;
1128;SDS011;553;51.038;7.216;2022-09-28T02:13:27;15.03;;;10.57;;
1128;SDS011;553;51.038;7.216;2022-09-28T02:16:03;16.33;;;10.40;;
1128;SDS011;553;51.038;7.216;2022-09-28T02:18:31;11.73;;;8.73;;
1128;SDS011;553;51.038;7.216;2022-09-28T02:20:59;11.20;;;8.90;;
1128;SDS011;553;51.038;7.216;2022-09-28T02:23:51;13.70;;;8.93;;
1128;SDS011;553;51.038;7.216;2022-09-28T02:26:28;18.03;;;11.07;;
1128;SDS011;553;51.038;7.216;2022-09-28T02:28:58;14.20;;;9.77;;
1128;SDS011;553;51.038;7.216;2022-09-28T02:31:25;13.40;;;9.60;;
1128;SDS011;553;51.038;7.216;2022-09-28T02:33:53;12.67;;;9.60;;
1128;SDS011;553;51.038;7.216;2022-09-28T02:36:23;16.13;;;9.70;;
1128;SDS011;553;51.038;7.216;2022-09-28T02:38:51;14.10;;;10.40;;
1128;SDS011;553;51.038;7.216;2022-09-28T02:41:23;13.83;;;10.50;;
1128;SDS011;553;51.038;7.216;2022-09-28T02:47:06;12.57;;;9.63;;
1128;SDS011;553;51.038;7.216;2022-09-28T02:49:40;17.03;;;10.80;;
1128;SDS011;553;51.038;7.216;2022-09-28T03:06:18;15.67;;;11.03;;
1128;SDS011;553;51.038;7.216;2022-09-28T03:08:52;15.93;;;11.17;;
1128;SDS011;553;51.038;7.216;2022-09-28T03:11:36;15.30;;;10.63;;
1128;SDS011;553;51.038;7.216;2022-09-28T03:14:07;19.87;;;11.50;;
1128;SDS011;553;51.038;7.216;2022-09-28T03:16:43;17.17;;;11.30;;
1128;SDS011;553;51.038;7.216;2022-09-28T03:19:11;18.93;;;11.23;;
1128;SDS011;553;51.038;7.216;2022-09-28T03:21:38;17.77;;;12.47;;
1128;SDS011;553;51.038;7.216;2022-09-28T03:24:05;16.00;;;11.83;;
1128;SDS011;553;51.038;7.216;2022-09-28T03:26:34;17.53;;;12.97;;
1128;SDS011;553;51.038;7.216;2022-09-28T03:29:00;18.37;;;12.43;;
1128;SDS011;553;51.038;7.216;2022-09-28T03:31:27;21.10;;;12.40;;
1128;SDS011;553;51.038;7.216;2022-09-28T03:33:54;21.90;;;14.70;;
1128;SDS011;553;51.038;7.216;2022-09-28T03:36:21;17.10;;;13.50;;
1128;SDS011;553;51.038;7.216;2022-09-28T03:38:50;21.53;;;14.43;;
1128;SDS011;553;51.038;7.216;2022-09-28T03:41:17;20.57;;;14.33;;
1128;SDS011;553;51.038;7.216;2022-09-28T03:43:44;18.80;;;13.63;;
1128;SDS011;553;51.038;7.216;2022-09-28T03:46:12;20.90;;;13.87;;
1128;SDS011;553;51.038;7.216;2022-09-28T03:48:44;22.80;;;13.70;;
1128;SDS011;553;51.038;7.216;2022-09-28T03:51:10;20.73;;;15.13;;
1128;SDS011;553;51.038;7.216;2022-09-28T03:53:38;21.70;;;14.40;;
1128;SDS011;553;51.038;7.216;2022-09-28T03:56:07;24.70;;;16.40;;
1128;SDS011;553;51.038;7.216;2022-09-28T03:58:39;25.63;;;15.70;;
1128;SDS011;553;51.038;7.216;2022-09-28T04:01:09;23.90;;;16.67;;
1128;SDS011;553;51.038;7.216;2022-09-28T04:03:43;26.73;;;18.23;;
1128;SDS011;553;51.038;7.216;2022-09-28T04:06:11;23.70;;;15.90;;
1128;SDS011;553;51.038;7.216;2022-09-28T04:08:38;23.40;;;16.33;;
1128;SDS011;553;51.038;7.216;2022-09-28T04:11:05;31.03;;;19.00;;
1128;SDS011;553;51.038;7.216;2022-09-28T04:13:32;24.47;;;15.97;;
1128;SDS011;553;51.038;7.216;2022-09-28T04:15:59;24.50;;;16.80;;
1128;SDS011;553;51.038;7.216;2022-09-28T04:18:30;27.27;;;18.10;;
1128;SDS011;553;51.038;7.216;2022-09-28T04:21:12;21.27;;;15.53;;
1128;SDS011;553;51.038;7.216;2022-09-28T04:23:47;21.53;;;16.57;;
1128;SDS011;553;51.038;7.216;2022-09-28T04:26:19;26.80;;;18.27;;
1128;SDS011;553;51.038;7.216;2022-09-28T04:28:47;27.80;;;17.10;;
1128;SDS011;553;51.038;7.216;2022-09-28T04:31:37;28.27;;;18.30;;
1128;SDS011;553;51.038;7.216;2022-09-28T04:34:08;32.57;;;20.50;;
1128;SDS011;553;51.038;7.216;2022-09-28T04:36:35;33.47;;;18.77;;
1128;SDS011;553;51.038;7.216;2022-09-28T04:39:02;37.90;;;21.30;;
1128;SDS011;553;51.038;7.216;2022-09-28T04:41:30;39.53;;;18.43;;
1128;SDS011;553;51.038;7.216;2022-09-28T04:43:56;34.00;;;21.40;;
1128;SDS011;553;51.038;7.216;2022-09-28T04:46:24;33.67;;;20.23;;
1128;SDS011;553;51.038;7.216;2022-09-28T04:49:20;38.23;;;21.50;;
1128;SDS011;553;51.038;7.216;2022-09-28T04:51:51;34.63;;;19.87;;
1128;SDS011;553;51.038;7.216;2022-09-28T04:54:17;33.23;;;19.37;;
1128;SDS011;553;51.038;7.216;2022-09-28T04:56:44;42.03;;;22.47;;
1128;SDS011;553;51.038;7.216;2022-09-28T04:59:11;30.07;;;18.70;;
1128;SDS011;553;51.038;7.216;2022-09-28T05:01:39;31.60;;;18.40;;
1128;SDS011;553;51.038;7.216;2022-09-28T05:04:25;36.00;;;21.53;;
1128;SDS011;553;51.038;7.216;2022-09-28T05:07:05;31.03;;;17.67;;
1128;SDS011;553;51.038;7.216;2022-09-28T05:09:31;30.53;;;19.27;;
1128;SDS011;553;51.038;7.216;2022-09-28T05:12:03;28.13;;;18.10;;
1128;SDS011;553;51.038;7.216;2022-09-28T05:14:30;37.43;;;20.23;;
1128;SDS011;553;51.038;7.216;2022-09-28T05:16:56;33.90;;;20.63;;
1128;SDS011;553;51.038;7.216;2022-09-28T05:19:23;38.70;;;22.40;;
1128;SDS011;553;51.038;7.216;2022-09-28T05:21:51;29.27;;;19.80;;
1128;SDS011;553;51.038;7.216;2022-09-28T05:24:18;36.13;;;21.30;;
1128;SDS011;553;51.038;7.216;2022-09-28T05:26:49;38.70;;;24.23;;
1128;SDS011;553;51.038;7.216;2022-09-28T05:29:17;37.00;;;22.80;;
1128;SDS011;553;51.038;7.216;2022-09-28T05:32:04;36.90;;;20.20;;
1128;SDS011;553;51.038;7.216;2022-09-28T05:34:34;34.07;;;22.47;;
1128;SDS011;553;51.038;7.216;2022-09-28T05:37:01;31.47;;;20.17;;
1128;SDS011;553;51.038;7.216;2022-09-28T05:39:29;35.27;;;20.90;;
1128;SDS011;553;51.038;7.216;2022-09-28T05:41:55;31.73;;;21.83;;
1128;SDS011;553;51.038;7.216;2022-09-28T05:44:23;34.10;;;20.83;;
1128;SDS011;553;51.038;7.216;2022-09-28T05:46:51;36.87;;;21.13;;
1128;SDS011;553;51.038;7.216;2022-09-28T05:49:18;32.90;;;22.20;;
1128;SDS011;553;51.038;7.216;2022-09-28T05:51:46;30.13;;;19.43;;
1128;SDS011;553;51.038;7.216;2022-09-28T05:54:12;31.30;;;21.37;;
1128;SDS011;553;51.038;7.216;2022-09-28T05:56:43;48.37;;;29.57;;
1128;SDS011;553;51.038;7.216;2022-09-28T05:59:10;54.40;;;32.00;;
1128;SDS011;553;51.038;7.216;2022-09-28T06:01:37;47.30;;;28.90;;
1128;SDS011;553;51.038;7.216;2022-09-28T06:04:07;35.63;;;22.90;;
1128;SDS011;553;51.038;7.216;2022-09-28T06:06:34;45.10;;;27.80;;
1128;SDS011;553;51.038;7.216;2022-09-28T06:09:01;39.43;;;27.63;;
1128;SDS011;553;51.038;7.216;2022-09-28T06:11:38;40.00;;;25.30;;
1128;SDS011;553;51.038;7.216;2022-09-28T06:14:14;38.03;;;24.20;;
1128;SDS011;553;51.038;7.216;2022-09-28T06:16:41;31.70;;;22.63;;
1128;SDS011;553;51.038;7.216;2022-09-28T06:19:10;33.07;;;23.77;;
1128;SDS011;553;51.038;7.216;2022-09-28T06:22:00;32.80;;;22.73;;
1128;SDS011;553;51.038;7.216;2022-09-28T06:24:29;36.70;;;25.73;;
1128;SDS011;553;51.038;7.216;2022-09-28T06:26:56;34.40;;;22.70;;
1128;SDS011;553;51.038;7.216;2022-09-28T06:29:22;29.33;;;21.70;;
1128;SDS011;553;51.038;7.216;2022-09-28T06:31:50;32.70;;;21.57;;
1128;SDS011;553;51.038;7.216;2022-09-28T06:34:17;30.70;;;20.47;;
1128;SDS011;553;51.038;7.216;2022-09-28T06:36:44;28.60;;;19.37;;
1128;SDS011;553;51.038;7.216;2022-09-28T06:39:10;31.67;;;18.03;;
1128;SDS011;553;51.038;7.216;2022-09-28T06:41:38;26.27;;;18.60;;
1128;SDS011;553;51.038;7.216;2022-09-28T06:44:13;25.23;;;17.23;;
1128;SDS011;553;51.038;7.216;2022-09-28T06:47:19;28.53;;;19.57;;
1128;SDS011;553;51.038;7.216;2022-09-28T06:50:09;28.03;;;17.97;;
1128;SDS011;553;51.038;7.216;2022-09-28T06:52:52;29.07;;;20.20;;
1128;SDS011;553;51.038;7.216;2022-09-28T06:55:41;24.47;;;16.93;;
1128;SDS011;553;51.038;7.216;2022-09-28T06:58:10;26.30;;;17.57;;
1128;SDS011;553;51.038;7.216;2022-09-28T07:00:38;24.67;;;16.97;;
1128;SDS011;553;51.038;7.216;2022-09-28T07:03:27;22.43;;;17.07;;
1128;SDS011;553;51.038;7.216;2022-09-28T07:06:18;24.60;;;17.00;;
1128;SDS011;553;51.038;7.216;2022-09-28T07:09:12;25.47;;;18.87;;
1128;SDS011;553;51.038;7.216;2022-09-28T07:12:26;25.23;;;17.53;;
1128;SDS011;553;51.038;7.216;2022-09-28T07:15:01;28.40;;;15.93;;
1128;SDS011;553;51.038;7.216;2022-09-28T07:17:28;24.53;;;16.13;;
1128;SDS011;553;51.038;7.216;2022-09-28T07:19:57;23.30;;;15.63;;
1128;SDS011;553;51.038;7.216;2022-09-28T07:22:39;23.73;;;16.20;;
1128;SDS011;553;51.038;7.216;2022-09-28T07:25:13;25.80;;;18.23;;
1128;SDS011;553;51.038;7.216;2022-09-28T07:27:58;21.80;;;15.80;;
1128;SDS011;553;51.038;7.216;2022-09-28T07:30:43;22.90;;;17.10;;
1128;SDS011;553;51.038;7.216;2022-09-28T07:33:15;24.50;;;17.70;;
1128;SDS011;553;51.038;7.216;2022-09-28T07:35:51;25.27;;;17.20;;
1128;SDS011;553;51.038;7.216;2022-09-28T07:38:22;24.60;;;16.27;;
1128;SDS011;553;51.038;7.216;2022-09-28T07:40:48;23.80;;;17.57;;
1128;SDS011;553;51.038;7.216;2022-09-28T07:43:34;24.20;;;15.83;;
1128;SDS011;553;51.038;7.216;2022-09-28T07:46:02;24.43;;;16.87;;
1128;SDS011;553;51.038;7.216;2022-09-28T07:48:28;24.27;;;16.60;;
1128;SDS011;553;51.038;7.216;2022-09-28T07:51:09;22.70;;;17.03;;
1128;SDS011;553;51.038;7.216;2022-09-28T07:53:38;24.70;;;16.60;;
1128;SDS011;553;51.038;7.216;2022-09-28T07:56:24;24.13;;;17.23;;
1128;SDS011;553;51.038;7.216;2022-09-28T07:59:05;21.60;;;15.63;;
1128;SDS011;553;51.038;7.216;2022-09-28T08:01:38;26.40;;;19.53;;
1128;SDS011;553;51.038;7.216;2022-09-28T08:04:06;22.20;;;16.50;;
1128;SDS011;553;51.038;7.216;2022-09-28T08:06:34;20.90;;;15.13;;
1128;SDS011;553;51.038;7.216;2022-09-28T08:09:03;18.23;;;14.70;;
1128;SDS011;553;51.038;7.216;2022-09-28T08:11:59;21.17;;;15.27;;
1128;SDS011;553;51.038;7.216;2022-09-28T08:14:49;18.90;;;13.27;;
1128;SDS011;553;51.038;7.216;2022-09-28T08:17:55;29.27;;;14.13;;
1128;SDS011;553;51.038;7.216;2022-09-28T08:20:28;18.37;;;14.07;;
1128;SDS011;553;51.038;7.216;2022-09-28T08:23:17;19.37;;;13.47;;
1128;SDS011;553;51.038;7.216;2022-09-28T08:25:49;18.90;;;12.53;;
1128;SDS011;553;51.038;7.216;2022-09-28T08:28:17;19.10;;;14.20;;
1128;SDS011;553;51.038;7.216;2022-09-28T08:30:46;19.73;;;13.20;;
1128;SDS011;553;51.038;7.216;2022-09-28T08:33:32;17.10;;;14.07;;
1128;SDS011;553;51.038;7.216;2022-09-28T08:36:18;17.50;;;13.17;;
1128;SDS011;553;51.038;7.216;2022-09-28T08:39:07;14.63;;;11.13;;
1128;SDS011;553;51.038;7.216;2022-09-28T08:42:00;16.87;;;11.53;;
1128;SDS011;553;51.038;7.216;2022-09-28T08:44:50;14.20;;;11.63;;
1128;SDS011;553;51.038;7.216;2022-09-28T08:47:58;13.20;;;10.93;;
1128;SDS011;553;51.038;7.216;2022-09-28T08:51:11;13.83;;;10.03;;
1128;SDS011;553;51.038;7.216;2022-09-28T08:53:58;11.10;;;9.67;;
1128;SDS011;553;51.038;7.216;2022-09-28T08:56:51;12.40;;;9.30;;
1128;SDS011;553;51.038;7.216;2022-09-28T08:59:41;12.97;;;9.30;;
1128;SDS011;553;51.038;7.216;2022-09-28T09:02:36;16.80;;;9.07;;
1128;SDS011;553;51.038;7.216;2022-09-28T09:05:12;14.53;;;8.70;;
1128;SDS011;553;51.038;7.216;2022-09-28T09:19:48;17.57;;;11.60;;
1128;SDS011;553;51.038;7.216;2022-09-28T09:25:20;11.73;;;10.00;;
1128;SDS011;553;51.038;7.216;2022-09-28T09:31:26;12.80;;;9.47;;
1128;SDS011;553;51.038;7.216;2022-09-28T09:37:18;11.93;;;9.93;;
1128;SDS011;553;51.038;7.216;2022-09-28T09:43:41;12.80;;;10.50;;
1128;SDS011;553;51.038;7.216;2022-09-28T09:46:46;13.70;;;9.70;;
1128;SDS011;553;51.038;7.216;2022-09-28T09:49:48;13.27;;;9.33;;
1128;SDS011;553;51.038;7.216;2022-09-28T09:55:23;11.90;;;9.50;;
1128;SDS011;553;51.038;7.216;2022-09-28T10:00:59;12.47;;;8.97;;
1128;SDS011;553;51.038;7.216;2022-09-28T10:04:13;10.50;;;8.97;;
1128;SDS011;553;51.038;7.216;2022-09-28T10:06:52;11.10;;;8.23;;
1128;SDS011;553;51.038;7.216;2022-09-28T10:09:29;12.30;;;8.97;;
1128;SDS011;553;51.038;7.216;2022-09-28T10:12:18;9.33;;;8.43;;
1128;SDS011;553;51.038;7.216;2022-09-28T10:14:46;13.97;;;9.37;;
1128;SDS011;553;51.038;7.216;2022-09-28T10:17:15;15.30;;;9.50;;
1128;SDS011;553;51.038;7.216;2022-09-28T10:20:03;10.90;;;8.70;;
1128;SDS011;553;51.038;7.216;2022-09-28T10:22:51;11.63;;;8.60;;
1128;SDS011;553;51.038;7.216;2022-09-28T10:25:22;13.03;;;9.27;;
1128;SDS011;553;51.038;7.216;2022-09-28T10:27:50;12.63;;;10.30;;
1128;SDS011;553;51.038;7.216;2022-09-28T10:30:19;11.43;;;7.80;;
1128;SDS011;553;51.038;7.216;2022-09-28T10:32:51;12.87;;;8.90;;
1128;SDS011;553;51.038;7.216;2022-09-28T10:35:22;8.13;;;6.97;;
1128;SDS011;553;51.038;7.216;2022-09-28T10:38:17;10.47;;;7.80;;
1128;SDS011;553;51.038;7.216;2022-09-28T10:41:08;11.73;;;8.80;;
1128;SDS011;553;51.038;7.216;2022-09-28T10:43:51;10.77;;;7.17;;
1128;SDS011;553;51.038;7.216;2022-09-28T10:46:55;15.80;;;9.67;;
1128;SDS011;553;51.038;7.216;2022-09-28T10:49:28;10.67;;;6.50;;
1128;SDS011;553;51.038;7.216;2022-09-28T10:52:29;13.77;;;9.00;;
1128;SDS011;553;51.038;7.216;2022-09-28T10:54:58;15.03;;;9.40;;
1128;SDS011;553;51.038;7.216;2022-09-28T10:57:32;9.33;;;7.63;;
1128;SDS011;553;51.038;7.216;2022-09-28T11:00:04;10.53;;;7.07;;
1128;SDS011;553;51.038;7.216;2022-09-28T11:02:47;7.10;;;5.17;;
1128;SDS011;553;51.038;7.216;2022-09-28T11:05:19;16.20;;;6.00;;
1128;SDS011;553;51.038;7.216;2022-09-28T11:07:49;7.40;;;4.70;;
1128;SDS011;553;51.038;7.216;2022-09-28T11:10:24;4.27;;;3.43;;
1128;SDS011;553;51.038;7.216;2022-09-28T11:13:02;8.57;;;3.60;;
1128;SDS011;553;51.038;7.216;2022-09-28T11:15:30;11.40;;;6.13;;
1128;SDS011;553;51.038;7.216;2022-09-28T11:18:17;4.87;;;3.70;;
1128;SDS011;553;51.038;7.216;2022-09-28T11:21:12;7.00;;;4.93;;
1128;SDS011;553;51.038;7.216;2022-09-28T11:24:04;8.80;;;5.27;;
1128;SDS011;553;51.038;7.216;2022-09-28T11:26:45;9.47;;;6.87;;
1128;SDS011;553;51.038;7.216;2022-09-28T11:29:19;5.93;;;4.60;;
1128;SDS011;553;51.038;7.216;2022-09-28T11:32:45;4.87;;;3.63;;
1128;SDS011;553;51.038;7.216;2022-09-28T11:35:43;7.93;;;4.33;;
1128;SDS011;553;51.038;7.216;2022-09-28T11:38:29;4.70;;;3.07;;
1128;SDS011;553;51.038;7.216;2022-09-28T11:46:39;4.23;;;3.30;;
1128;SDS011;553;51.038;7.216;2022-09-28T11:49:41;6.30;;;3.63;;
1128;SDS011;553;51.038;7.216;2022-09-28T11:52:36;6.20;;;5.30;;
1128;SDS011;553;51.038;7.216;2022-09-28T11:55:33;5.07;;;4.50;;
1128;SDS011;553;51.038;7.216;2022-09-28T11:58:23;4.77;;;3.37;;
1128;SDS011;553;51.038;7.216;2022-09-28T12:04:05;5.70;;;3.90;;
1128;SDS011;553;51.038;7.216;2022-09-28T12:06:39;4.53;;;3.20;;
1128;SDS011;553;51.038;7.216;2022-09-28T12:09:41;2.63;;;2.10;;
1128;SDS011;553;51.038;7.216;2022-09-28T12:12:19;3.90;;;2.80;;
1128;SDS011;553;51.038;7.216;2022-09-28T12:14:54;4.40;;;2.70;;
1128;SDS011;553;51.038;7.216;2022-09-28T12:17:29;5.30;;;2.80;;
1128;SDS011;553;51.038;7.216;2022-09-28T12:20:28;2.40;;;2.20;;
1128;SDS011;553;51.038;7.216;2022-09-28T12:25:25;5.20;;;4.10;;
1128;SDS011;553;51.038;7.216;2022-09-28T12:27:57;5.10;;;4.50;;
1128;SDS011;553;51.038;7.216;2022-09-28T12:30:27;8.87;;;5.80;;
1128;SDS011;553;51.038;7.216;2022-09-28T12:33:12;7.37;;;5.57;;
1128;SDS011;553;51.038;7.216;2022-09-28T13:03:42;3.03;;;2.80;;
1128;SDS011;553;51.038;7.216;2022-09-28T13:06:23;6.60;;;5.30;;
1128;SDS011;553;51.038;7.216;2022-09-28T13:11:44;4.93;;;3.20;;
1128;SDS011;553;51.038;7.216;2022-09-28T13:17:45;6.60;;;3.33;;
1128;SDS011;553;51.038;7.216;2022-09-28T13:23:26;4.90;;;4.03;;
1128;SDS011;553;51.038;7.216;2022-09-28T13:28:44;4.50;;;2.70;;
1128;SDS011;553;51.038;7.216;2022-09-28T13:31:16;5.10;;;2.73;;
1128;SDS011;553;51.038;7.216;2022-09-28T13:33:46;3.50;;;2.67;;
1128;SDS011;553;51.038;7.216;2022-09-28T13:39:01;5.60;;;3.63;;
1128;SDS011;553;51.038;7.216;2022-09-28T13:41:28;4.77;;;2.87;;
1128;SDS011;553;51.038;7.216;2022-09-28T13:49:47;6.87;;;2.20;;
1128;SDS011;553;51.038;7.216;2022-09-28T13:52:33;4.10;;;2.13;;
1128;SDS011;553;51.038;7.216;2022-09-28T13:55:21;2.80;;;2.33;;
1128;SDS011;553;51.038;7.216;2022-09-28T13:58:04;2.73;;;1.97;;
1128;SDS011;553;51.038;7.216;2022-09-28T14:00:54;2.97;;;2.10;;
1128;SDS011;553;51.038;7.216;2022-09-28T14:03:42;3.73;;;1.80;;
1128;SDS011;553;51.038;7.216;2022-09-28T14:16:39;2.27;;;1.43;;
1128;SDS011;553;51.038;7.216;2022-09-28T14:19:20;3.50;;;2.03;;
1128;SDS011;553;51.038;7.216;2022-09-28T14:27:45;3.33;;;1.80;;
1128;SDS011;553;51.038;7.216;2022-09-28T14:33:14;7.10;;;3.27;;
1128;SDS011;553;51.038;7.216;2022-09-28T14:35:57;2.30;;;1.63;;
1128;SDS011;553;51.038;7.216;2022-09-28T14:38:36;3.37;;;2.97;;
1128;SDS011;553;51.038;7.216;2022-09-28T14:41:34;4.40;;;2.93;;
1128;SDS011;553;51.038;7.216;2022-09-28T14:44:10;2.17;;;1.70;;
1128;SDS011;553;51.038;7.216;2022-09-28T14:46:44;7.57;;;4.50;;
1128;SDS011;553;51.038;7.216;2022-09-28T14:54:24;2.90;;;1.30;;
1128;SDS011;553;51.038;7.216;2022-09-28T14:59:25;4.60;;;2.43;;
1128;SDS011;553;51.038;7.216;2022-09-28T15:02:07;3.70;;;2.10;;
1128;SDS011;553;51.038;7.216;2022-09-28T15:04:41;5.20;;;3.20;;
1128;SDS011;553;51.038;7.216;2022-09-28T15:07:22;14.53;;;9.70;;
1128;SDS011;553;51.038;7.216;2022-09-28T15:09:55;38.60;;;24.43;;
1128;SDS011;553;51.038;7.216;2022-09-28T15:12:27;22.13;;;14.37;;
1128;SDS011;553;51.038;7.216;2022-09-28T15:14:59;2.27;;;1.87;;
1128;SDS011;553;51.038;7.216;2022-09-28T15:17:34;2.03;;;1.30;;
1128;SDS011;553;51.038;7.216;2022-09-28T15:20:24;3.70;;;2.20;;
1128;SDS011;553;51.038;7.216;2022-09-28T15:22:57;2.60;;;1.67;;
1128;SDS011;553;51.038;7.216;2022-09-28T15:25:26;6.40;;;1.90;;
1128;SDS011;553;51.038;7.216;2022-09-28T15:27:58;7.60;;;4.57;;
1128;SDS011;553;51.038;7.216;2022-09-28T15:30:33;4.30;;;2.80;;
1128;SDS011;553;51.038;7.216;2022-09-28T15:33:02;3.20;;;1.77;;
1128;SDS011;553;51.038;7.216;2022-09-28T15:36:08;2.93;;;1.60;;
1128;SDS011;553;51.038;7.216;2022-09-28T15:38:51;3.90;;;1.73;;
1128;SDS011;553;51.038;7.216;2022-09-28T15:41:19;3.53;;;1.90;;
1128;SDS011;553;51.038;7.216;2022-09-28T15:44:05;6.00;;;2.60;;
1128;SDS011;553;51.038;7.216;2022-09-28T15:46:37;3.13;;;2.10;;
1128;SDS011;553;51.038;7.216;2022-09-28T15:49:06;4.80;;;2.03;;
1128;SDS011;553;51.038;7.216;2022-09-28T15:51:46;2.30;;;1.30;;
1128;SDS011;553;51.038;7.216;2022-09-28T15:54:25;4.27;;;2.90;;
1128;SDS011;553;51.038;7.216;2022-09-28T15:56:57;7.63;;;5.30;;
1128;SDS011;553;51.038;7.216;2022-09-28T15:59:28;9.53;;;6.80;;
1128;SDS011;553;51.038;7.216;2022-09-28T16:04:46;6.70;;;5.20;;
1128;SDS011;553;51.038;7.216;2022-09-28T16:07:38;8.87;;;4.00;;
1128;SDS011;553;51.038;7.216;2022-09-28T16:12:41;10.47;;;9.00;;
1128;SDS011;553;51.038;7.216;2022-09-28T16:15:22;5.03;;;3.50;;
1128;SDS011;553;51.038;7.216;2022-09-28T16:17:53;5.60;;;3.13;;
1128;SDS011;553;51.038;7.216;2022-09-28T16:20:26;6.80;;;4.53;;
1128;SDS011;553;51.038;7.216;2022-09-28T16:23:08;3.73;;;2.40;;
1128;SDS011;553;51.038;7.216;2022-09-28T16:26:00;4.40;;;2.10;;
1128;SDS011;553;51.038;7.216;2022-09-28T16:33:44;2.10;;;1.70;;
1128;SDS011;553;51.038;7.216;2022-09-28T16:36:21;3.20;;;1.50;;
1128;SDS011;553;51.038;7.216;2022-09-28T16:38:52;8.20;;;6.93;;
1128;SDS011;553;51.038;7.216;2022-09-28T16:41:20;9.90;;;3.40;;
1128;SDS011;553;51.038;7.216;2022-09-28T16:43:53;2.20;;;1.90;;
1128;SDS011;553;51.038;7.216;2022-09-28T16:46:30;5.40;;;1.93;;
1128;SDS011;553;51.038;7.216;2022-09-28T16:49:01;2.47;;;1.00;;
1128;SDS011;553;51.038;7.216;2022-09-28T16:51:30;1.50;;;1.40;;
1128;SDS011;553;51.038;7.216;2022-09-28T16:53:58;4.90;;;2.33;;
1128;SDS011;553;51.038;7.216;2022-09-28T16:56:54;2.13;;;1.43;;
1128;SDS011;553;51.038;7.216;2022-09-28T16:59:21;3.70;;;1.70;;
1128;SDS011;553;51.038;7.216;2022-09-28T17:01:48;5.97;;;2.17;;
1128;SDS011;553;51.038;7.216;2022-09-28T17:04:14;3.07;;;1.83;;
1128;SDS011;553;51.038;7.216;2022-09-28T17:06:41;6.90;;;1.80;;
1128;SDS011;553;51.038;7.216;2022-09-28T17:09:10;3.80;;;1.77;;
1128;SDS011;553;51.038;7.216;2022-09-28T17:11:37;2.50;;;1.70;;
1128;SDS011;553;51.038;7.216;2022-09-28T17:14:04;5.40;;;3.20;;
1128;SDS011;553;51.038;7.216;2022-09-28T17:16:31;3.17;;;2.90;;
1128;SDS011;553;51.038;7.216;2022-09-28T17:19:20;3.33;;;3.03;;
1128;SDS011;553;51.038;7.216;2022-09-28T17:21:51;2.53;;;2.30;;
1128;SDS011;553;51.038;7.216;2022-09-28T17:24:18;4.67;;;3.83;;
1128;SDS011;553;51.038;7.216;2022-09-28T17:26:45;2.70;;;2.50;;
1128;SDS011;553;51.038;7.216;2022-09-28T17:29:14;4.77;;;3.70;;
1128;SDS011;553;51.038;7.216;2022-09-28T17:31:41;9.07;;;5.00;;
1128;SDS011;553;51.038;7.216;2022-09-28T17:34:09;4.50;;;3.63;;
1128;SDS011;553;51.038;7.216;2022-09-28T17:36:37;3.97;;;3.57;;
1128;SDS011;553;51.038;7.216;2022-09-28T17:39:08;5.17;;;4.67;;
1128;SDS011;553;51.038;7.216;2022-09-28T17:41:36;7.53;;;5.83;;
1128;SDS011;553;51.038;7.216;2022-09-28T17:44:04;4.20;;;3.80;;
1128;SDS011;553;51.038;7.216;2022-09-28T17:46:32;4.20;;;3.90;;
1128;SDS011;553;51.038;7.216;2022-09-28T17:49:02;5.00;;;3.80;;
1128;SDS011;553;51.038;7.216;2022-09-28T17:51:31;6.43;;;5.93;;
1128;SDS011;553;51.038;7.216;2022-09-28T17:53:59;3.53;;;2.80;;
1128;SDS011;553;51.038;7.216;2022-09-28T17:56:27;2.60;;;2.40;;
1128;SDS011;553;51.038;7.216;2022-09-28T17:59:02;3.20;;;2.80;;
1128;SDS011;553;51.038;7.216;2022-09-28T18:01:30;3.13;;;2.67;;
1128;SDS011;553;51.038;7.216;2022-09-28T18:04:02;2.50;;;2.17;;
1128;SDS011;553;51.038;7.216;2022-09-28T18:06:30;2.57;;;2.37;;
1128;SDS011;553;51.038;7.216;2022-09-28T18:08:59;5.40;;;3.27;;
1128;SDS011;553;51.038;7.216;2022-09-28T18:11:28;3.03;;;2.73;;
1128;SDS011;553;51.038;7.216;2022-09-28T18:13:55;4.10;;;2.53;;
1128;SDS011;553;51.038;7.216;2022-09-28T18:16:21;3.07;;;2.87;;
1128;SDS011;553;51.038;7.216;2022-09-28T18:18:48;3.23;;;2.90;;
1128;SDS011;553;51.038;7.216;2022-09-28T18:21:15;7.27;;;5.40;;
1128;SDS011;553;51.038;7.216;2022-09-28T18:23:41;7.27;;;5.40;;
1128;SDS011;553;51.038;7.216;2022-09-28T18:26:11;7.90;;;5.67;;
1128;SDS011;553;51.038;7.216;2022-09-28T18:28:39;5.23;;;4.70;;
1128;SDS011;553;51.038;7.216;2022-09-28T18:31:07;7.00;;;4.90;;
1128;SDS011;553;51.038;7.216;2022-09-28T18:33:38;5.53;;;3.90;;
1128;SDS011;553;51.038;7.216;2022-09-28T18:36:05;3.80;;;3.47;;